Time;durP1;ratioP1;P1;durP2;ratioP2;P2;SDS_P1;SDS_P2;PMS_P1;PMS_P2;Temp;Humidity;BMP_temperature;BMP_pressure;BME280_temperature;BME280_humidity;BME280_pressure;Samples;Min_cycle;Max_cycle;Signal;HPM_P1;HPM_P2
2023/12/27 00:00:25;;;;;;;37.90;21.20;;;5.70;99.90;;;;;;5000909;28;20842;-67
2023/12/27 00:02:53;;;;;;;53.10;24.50;;;5.70;99.90;;;;;;5000474;28;20465;-67
2023/12/27 00:05:21;;;;;;;50.73;27.73;;;5.70;99.90;;;;;;5000868;28;21015;-67
2023/12/27 00:07:49;;;;;;;34.60;18.80;;;5.60;99.90;;;;;;5000600;28;20449;-67
2023/12/27 00:10:17;;;;;;;31.53;18.70;;;5.60;99.90;;;;;;5000445;28;20465;-67
2023/12/27 00:12:44;;;;;;;28.37;14.30;;;5.60;99.90;;;;;;5000879;28;20461;-67
2023/12/27 00:15:12;;;;;;;23.83;12.03;;;5.50;99.90;;;;;;5000516;28;20461;-68
2023/12/27 00:17:39;;;;;;;18.77;11.57;;;5.60;99.90;;;;;;5000567;28;20461;-67
2023/12/27 00:20:08;;;;;;;17.30;8.70;;;5.50;99.90;;;;;;5000549;28;20844;-67
2023/12/27 00:22:37;;;;;;;20.33;9.40;;;5.50;99.90;;;;;;5000732;28;20539;-67
2023/12/27 00:25:05;;;;;;;18.57;8.10;;;5.40;99.90;;;;;;5000412;28;20559;-67
2023/12/27 00:27:32;;;;;;;17.20;8.60;;;5.30;99.90;;;;;;5000707;28;20457;-67
2023/12/27 00:29:59;;;;;;;20.40;7.90;;;5.30;99.90;;;;;;5000668;28;20457;-68
2023/12/27 00:32:30;;;;;;;17.53;8.10;;;5.30;99.90;;;;;;5000535;28;20511;-67
2023/12/27 00:34:57;;;;;;;15.87;7.70;;;5.40;99.90;;;;;;5000196;28;20464;-67
2023/12/27 00:37:24;;;;;;;18.43;7.07;;;5.30;99.90;;;;;;5000246;28;20532;-68
2023/12/27 00:39:53;;;;;;;19.00;7.80;;;5.20;99.90;;;;;;5000495;28;20818;-67
2023/12/27 00:42:21;;;;;;;16.57;7.77;;;5.10;99.90;;;;;;5000766;28;20461;-67
2023/12/27 00:44:50;;;;;;;12.53;6.47;;;5.20;99.90;;;;;;5000814;28;20496;-67
2023/12/27 00:47:18;;;;;;;17.70;6.83;;;5.10;99.90;;;;;;5000058;28;20489;-68
2023/12/27 00:49:45;;;;;;;16.70;6.80;;;5.10;99.90;;;;;;5000379;28;20520;-67
2023/12/27 00:52:13;;;;;;;14.47;7.33;;;5.00;99.90;;;;;;4999814;28;20465;-67
2023/12/27 00:54:40;;;;;;;16.03;6.73;;;5.00;99.90;;;;;;5000374;28;20465;-67
2023/12/27 00:57:09;;;;;;;15.20;6.80;;;5.00;99.90;;;;;;4999923;28;20524;-68
2023/12/27 00:59:36;;;;;;;14.17;7.50;;;4.90;99.90;;;;;;4999931;28;20468;-68
2023/12/27 01:02:04;;;;;;;14.57;6.23;;;4.80;99.90;;;;;;5000286;28;20819;-67
2023/12/27 01:04:33;;;;;;;19.63;7.70;;;4.70;99.90;;;;;;4999746;28;20551;-67
2023/12/27 01:07:00;;;;;;;12.97;6.60;;;4.60;99.90;;;;;;4999590;28;20497;-67
2023/12/27 01:09:28;;;;;;;15.40;6.90;;;4.60;99.90;;;;;;4999881;28;20492;-67
2023/12/27 01:11:55;;;;;;;11.50;6.50;;;4.50;99.90;;;;;;4999728;28;20882;-67
2023/12/27 01:14:24;;;;;;;11.00;5.90;;;4.40;99.90;;;;;;4999674;28;20457;-67
2023/12/27 01:16:51;;;;;;;11.50;6.83;;;4.40;99.90;;;;;;4999470;28;20497;-67
2023/12/27 01:19:18;;;;;;;15.30;7.00;;;4.30;99.90;;;;;;4999197;28;20489;-67
2023/12/27 01:21:45;;;;;;;13.13;7.10;;;4.30;99.90;;;;;;5000038;28;20515;-67
2023/12/27 01:24:13;;;;;;;13.17;7.10;;;4.30;99.90;;;;;;5002094;28;20469;-67
2023/12/27 01:26:40;;;;;;;9.43;6.50;;;4.20;99.90;;;;;;5019678;28;20456;-67
2023/12/27 01:29:07;;;;;;;14.60;7.90;;;4.20;99.90;;;;;;5019138;28;20517;-67
2023/12/27 01:31:36;;;;;;;16.80;7.60;;;4.10;99.90;;;;;;5018552;28;20463;-67
2023/12/27 01:34:03;;;;;;;19.77;8.00;;;4.10;99.90;;;;;;5019201;28;20827;-67
2023/12/27 01:36:30;;;;;;;17.00;8.07;;;4.10;99.90;;;;;;5019183;28;20542;-67
2023/12/27 01:38:58;;;;;;;18.00;7.90;;;4.10;99.90;;;;;;5019045;28;20464;-67
2023/12/27 01:41:25;;;;;;;18.23;8.10;;;4.10;99.90;;;;;;5019012;28;20562;-67
2023/12/27 01:43:52;;;;;;;21.93;9.83;;;4.10;99.90;;;;;;5018897;28;20468;-67
2023/12/27 01:46:20;;;;;;;16.50;8.47;;;4.00;99.90;;;;;;5019446;28;20515;-67
2023/12/27 01:48:52;;;;;;;20.27;8.60;;;4.00;99.90;;;;;;5018493;28;20733;-67
2023/12/27 01:51:21;;;;;;;23.10;8.60;;;4.00;99.90;;;;;;5018579;28;20818;-67
2023/12/27 01:53:50;;;;;;;20.53;8.90;;;3.90;99.90;;;;;;5018577;28;20479;-67
2023/12/27 01:56:17;;;;;;;15.90;8.33;;;3.90;99.90;;;;;;5018626;28;20494;-67
2023/12/27 01:58:45;;;;;;;16.03;9.40;;;3.80;99.90;;;;;;5018765;28;20464;-67
2023/12/27 02:01:12;;;;;;;17.47;7.77;;;3.80;99.90;;;;;;5018452;28;20491;-67
2023/12/27 02:03:41;;;;;;;17.37;8.97;;;3.70;99.90;;;;;;5017934;28;20500;-67
2023/12/27 02:06:11;;;;;;;15.37;7.30;;;3.80;99.90;;;;;;5018691;28;20484;-67
2023/12/27 02:08:39;;;;;;;16.77;7.90;;;3.70;99.90;;;;;;5018661;28;20929;-67
2023/12/27 02:11:07;;;;;;;18.60;8.40;;;3.70;99.90;;;;;;5017846;28;20518;-67
2023/12/27 02:13:34;;;;;;;17.30;7.80;;;3.70;99.90;;;;;;5018255;28;20877;-67
2023/12/27 02:16:01;;;;;;;16.07;7.70;;;3.60;99.90;;;;;;5017417;28;20464;-67
2023/12/27 02:18:31;;;;;;;18.50;10.30;;;3.60;99.90;;;;;;5018064;28;20560;-67
2023/12/27 02:20:59;;;;;;;16.83;8.60;;;3.70;99.90;;;;;;5018009;28;20503;-67
2023/12/27 02:23:30;;;;;;;16.60;8.30;;;3.70;99.90;;;;;;5018055;28;20901;-67
2023/12/27 02:25:59;;;;;;;26.07;9.13;;;3.60;99.90;;;;;;5017951;28;20461;-67
2023/12/27 02:28:26;;;;;;;19.00;10.53;;;3.70;99.90;;;;;;5018158;28;20558;-67
2023/12/27 02:30:55;;;;;;;18.30;8.77;;;3.70;99.90;;;;;;5017753;28;20491;-67
2023/12/27 02:33:22;;;;;;;16.07;9.30;;;3.60;99.90;;;;;;5017286;28;20876;-67
2023/12/27 02:35:50;;;;;;;16.57;9.60;;;3.60;99.90;;;;;;5017996;28;20459;-67
2023/12/27 02:38:17;;;;;;;22.93;10.30;;;3.60;99.90;;;;;;5017304;28;20472;-66
2023/12/27 02:40:44;;;;;;;16.07;8.70;;;3.60;99.90;;;;;;5018230;28;20468;-67
2023/12/27 02:43:13;;;;;;;25.30;9.90;;;3.60;99.90;;;;;;5017663;28;20460;-67
2023/12/27 02:45:40;;;;;;;18.07;9.57;;;3.60;99.90;;;;;;5017689;28;20538;-67
2023/12/27 02:48:08;;;;;;;17.80;9.37;;;3.70;99.90;;;;;;5017617;28;20507;-67
2023/12/27 02:50:35;;;;;;;19.17;9.17;;;3.60;99.90;;;;;;5017825;28;20484;-67
2023/12/27 02:53:02;;;;;;;18.00;9.57;;;3.60;99.90;;;;;;5017539;28;20503;-67
2023/12/27 02:55:30;;;;;;;18.40;10.27;;;3.60;99.90;;;;;;5017489;28;20495;-67
2023/12/27 02:57:57;;;;;;;17.97;9.90;;;3.60;99.90;;;;;;5017433;28;20554;-67
2023/12/27 03:00:27;;;;;;;18.23;9.70;;;3.60;99.90;;;;;;5017862;28;20485;-68
2023/12/27 03:02:54;;;;;;;18.03;9.60;;;3.60;99.90;;;;;;5017278;28;20460;-67
2023/12/27 03:05:21;;;;;;;18.07;9.27;;;3.60;99.90;;;;;;5017537;28;20514;-67
2023/12/27 03:07:48;;;;;;;26.93;10.27;;;3.60;99.90;;;;;;5017863;28;20495;-67
2023/12/27 03:10:16;;;;;;;18.50;10.20;;;3.60;99.90;;;;;;5017457;28;20469;-67
2023/12/27 03:12:43;;;;;;;20.60;9.70;;;3.60;99.90;;;;;;5017556;28;20909;-67
2023/12/27 03:15:11;;;;;;;17.10;8.63;;;3.60;99.90;;;;;;5017069;28;20467;-67
2023/12/27 03:17:40;;;;;;;19.07;9.50;;;3.50;99.90;;;;;;5017081;28;20491;-67
2023/12/27 03:20:08;;;;;;;25.37;8.73;;;3.40;99.90;;;;;;5017651;28;20491;-67
2023/12/27 03:22:36;;;;;;;20.00;10.10;;;3.40;99.90;;;;;;5017325;28;20495;-67
2023/12/27 03:25:03;;;;;;;18.60;8.83;;;3.20;99.90;;;;;;5016830;28;20530;-67
2023/12/27 03:27:30;;;;;;;17.47;9.40;;;3.30;99.90;;;;;;5019055;28;20546;-67
2023/12/27 03:29:58;;;;;;;15.63;8.47;;;3.20;99.90;;;;;;5021308;28;20885;-67
2023/12/27 03:32:25;;;;;;;20.67;9.67;;;3.20;99.90;;;;;;5021581;28;20593;-66
2023/12/27 03:34:54;;;;;;;20.63;9.30;;;3.20;99.90;;;;;;5020776;28;20465;-66
2023/12/27 03:37:21;;;;;;;22.37;9.33;;;3.20;99.90;;;;;;5021014;28;20961;-67
2023/12/27 03:39:51;;;;;;;20.47;10.30;;;3.20;99.90;;;;;;5020957;28;20491;-66
2023/12/27 03:42:19;;;;;;;16.23;9.40;;;3.30;99.90;;;;;;5020866;28;20471;-66
2023/12/27 03:44:47;;;;;;;18.67;10.10;;;3.40;99.90;;;;;;5021271;28;20499;-66
2023/12/27 03:47:15;;;;;;;15.53;9.83;;;3.40;99.90;;;;;;5020618;28;20500;-66
2023/12/27 03:49:42;;;;;;;17.47;9.70;;;3.40;99.90;;;;;;5020562;28;20460;-67
2023/12/27 03:52:11;;;;;;;24.63;11.33;;;3.40;99.90;;;;;;5021000;28;20498;-67
2023/12/27 03:54:39;;;;;;;16.97;8.63;;;3.40;99.90;;;;;;5021231;28;20460;-67
2023/12/27 03:57:07;;;;;;;19.13;9.67;;;3.30;99.90;;;;;;5020418;28;20470;-66
2023/12/27 03:59:36;;;;;;;15.67;8.87;;;3.40;99.90;;;;;;5020750;28;20517;-67
2023/12/27 04:02:04;;;;;;;21.27;10.20;;;3.40;99.90;;;;;;5020914;28;20503;-67
2023/12/27 04:04:31;;;;;;;19.40;10.00;;;3.40;99.90;;;;;;5021007;28;20499;-68
2023/12/27 04:06:59;;;;;;;18.33;9.30;;;3.50;99.90;;;;;;5020612;28;20839;-67
2023/12/27 04:09:29;;;;;;;18.93;8.50;;;3.50;99.90;;;;;;5020777;28;20510;-68
2023/12/27 04:11:56;;;;;;;14.57;8.90;;;3.50;99.90;;;;;;5020667;28;20751;-68
2023/12/27 04:14:23;;;;;;;14.70;8.63;;;3.50;99.90;;;;;;5020627;28;20583;-68
2023/12/27 04:16:51;;;;;;;13.27;8.10;;;3.60;99.90;;;;;;5020155;28;20532;-68
2023/12/27 04:19:18;;;;;;;17.30;8.47;;;3.60;99.90;;;;;;5020162;28;20889;-68
2023/12/27 04:21:46;;;;;;;19.97;8.40;;;3.50;99.90;;;;;;5020283;28;20535;-68
2023/12/27 04:24:13;;;;;;;16.93;8.20;;;3.50;99.90;;;;;;5021006;28;20554;-68
2023/12/27 04:26:42;;;;;;;15.00;9.10;;;3.50;99.90;;;;;;5020704;28;20514;-68
2023/12/27 04:29:10;;;;;;;21.43;9.00;;;3.60;99.90;;;;;;5020200;28;20862;-68
2023/12/27 04:31:38;;;;;;;23.80;9.63;;;3.60;99.90;;;;;;5020562;28;20491;-68
2023/12/27 04:34:05;;;;;;;13.30;8.60;;;3.60;99.90;;;;;;5020645;28;20475;-68
2023/12/27 04:36:33;;;;;;;14.33;8.50;;;3.50;99.90;;;;;;5020468;28;20856;-68
2023/12/27 04:39:00;;;;;;;15.30;7.97;;;3.50;99.90;;;;;;5019673;28;20502;-68
2023/12/27 04:41:28;;;;;;;13.50;8.10;;;3.50;99.90;;;;;;5020119;28;20434;-68
2023/12/27 04:43:56;;;;;;;15.20;8.27;;;3.50;99.90;;;;;;5019979;28;20824;-68
2023/12/27 04:46:24;;;;;;;12.30;7.50;;;3.40;99.90;;;;;;5019817;28;20460;-68
2023/12/27 04:48:51;;;;;;;18.73;8.37;;;3.50;99.90;;;;;;5020116;28;20877;-68
2023/12/27 04:51:18;;;;;;;20.57;9.60;;;3.50;99.90;;;;;;5019574;28;20511;-68
2023/12/27 04:53:45;;;;;;;15.97;7.93;;;3.50;99.90;;;;;;5019988;28;20940;-68
2023/12/27 04:56:13;;;;;;;13.47;6.50;;;3.50;99.90;;;;;;5020024;28;20983;-68
2023/12/27 04:58:40;;;;;;;18.73;7.70;;;3.60;99.90;;;;;;5019703;28;20484;-68
2023/12/27 05:01:09;;;;;;;11.30;6.57;;;3.60;99.90;;;;;;5019612;28;20511;-69
2023/12/27 05:03:37;;;;;;;17.87;6.83;;;3.60;99.90;;;;;;5019789;28;20507;-69
2023/12/27 05:06:08;;;;;;;14.07;6.90;;;3.70;99.90;;;;;;5019228;28;20475;-68
2023/12/27 05:08:35;;;;;;;15.70;7.07;;;3.70;99.90;;;;;;5004562;28;20456;-68
2023/12/27 05:11:02;;;;;;;14.93;6.83;;;3.70;99.90;;;;;;4998660;28;20507;-69
2023/12/27 05:13:29;;;;;;;15.03;7.27;;;3.70;99.90;;;;;;4998307;28;20889;-68
2023/12/27 05:15:57;;;;;;;19.23;7.47;;;3.80;99.90;;;;;;4998438;28;20497;-69
2023/12/27 05:18:25;;;;;;;13.10;6.93;;;3.80;99.90;;;;;;4998320;28;20496;-69
2023/12/27 05:20:53;;;;;;;13.17;6.40;;;3.80;99.90;;;;;;4998552;28;20534;-69
2023/12/27 05:23:20;;;;;;;13.57;6.33;;;3.90;99.90;;;;;;4998538;28;20832;-69
2023/12/27 05:25:47;;;;;;;12.37;6.33;;;3.90;99.90;;;;;;4999444;28;20469;-69
2023/12/27 05:28:14;;;;;;;11.53;6.20;;;3.90;99.90;;;;;;5000200;28;20820;-69
2023/12/27 05:30:42;;;;;;;9.20;5.70;;;4.00;99.90;;;;;;4999860;28;20464;-68
2023/12/27 05:33:09;;;;;;;15.30;6.57;;;4.00;99.90;;;;;;4999221;28;20516;-68
2023/12/27 05:35:37;;;;;;;11.40;6.03;;;4.10;99.90;;;;;;4999736;28;20515;-68
2023/12/27 05:38:05;;;;;;;12.50;5.43;;;4.10;99.90;;;;;;4999690;28;21005;-68
2023/12/27 05:40:32;;;;;;;16.30;6.90;;;4.10;99.90;;;;;;4999897;28;20461;-68
2023/12/27 05:42:59;;;;;;;13.97;6.00;;;4.20;99.90;;;;;;4999339;28;20462;-69
2023/12/27 05:45:26;;;;;;;17.77;6.37;;;4.30;99.90;;;;;;4999644;28;20493;-69
2023/12/27 05:47:54;;;;;;;14.80;6.30;;;4.30;99.90;;;;;;5000725;28;20898;-68
2023/12/27 05:50:21;;;;;;;11.23;6.00;;;4.30;99.90;;;;;;4998698;28;20784;-69
2023/12/27 05:52:50;;;;;;;19.17;6.23;;;4.30;99.90;;;;;;4999639;28;20452;-68
2023/12/27 05:55:17;;;;;;;18.80;7.50;;;4.50;99.90;;;;;;4999595;28;20840;-68
2023/12/27 05:57:44;;;;;;;11.70;5.70;;;4.50;99.90;;;;;;4999992;28;20525;-68
2023/12/27 06:00:15;;;;;;;15.70;6.83;;;4.60;99.90;;;;;;5000384;28;20503;-69
2023/12/27 06:02:43;;;;;;;13.90;6.30;;;4.60;99.90;;;;;;5000018;28;20465;-69
2023/12/27 06:05:11;;;;;;;12.63;6.03;;;4.70;99.90;;;;;;4999188;28;20471;-68
2023/12/27 06:07:38;;;;;;;14.43;6.70;;;4.80;99.90;;;;;;4999082;28;20747;-68
2023/12/27 06:10:08;;;;;;;21.57;7.87;;;4.80;99.90;;;;;;4998703;28;20890;-68
2023/12/27 06:12:35;;;;;;;12.53;6.50;;;4.80;99.90;;;;;;4997964;28;20519;-68
2023/12/27 06:15:04;;;;;;;11.67;6.43;;;4.90;99.90;;;;;;4998005;28;20527;-68
2023/12/27 06:17:31;;;;;;;12.60;7.00;;;5.00;99.90;;;;;;4998546;28;20485;-68
2023/12/27 06:19:58;;;;;;;11.73;6.20;;;5.00;99.90;;;;;;4997508;28;20513;-68
2023/12/27 06:22:25;;;;;;;14.47;6.07;;;5.00;99.90;;;;;;4998281;28;20519;-68
2023/12/27 06:24:52;;;;;;;15.33;6.40;;;5.00;99.90;;;;;;4998064;28;20475;-68
2023/12/27 06:27:21;;;;;;;11.83;5.70;;;5.00;99.90;;;;;;4998374;28;20472;-68
2023/12/27 06:29:49;;;;;;;15.90;6.57;;;5.00;99.90;;;;;;4998753;28;20463;-68
2023/12/27 06:32:17;;;;;;;13.07;5.87;;;5.00;99.90;;;;;;4998728;28;20833;-68
2023/12/27 06:34:44;;;;;;;9.50;6.27;;;5.10;99.90;;;;;;4998995;28;20503;-68
2023/12/27 06:37:11;;;;;;;20.20;6.53;;;5.10;99.90;;;;;;4998235;28;20463;-68
2023/12/27 06:39:39;;;;;;;10.57;5.67;;;5.20;99.90;;;;;;4998637;28;20457;-68
2023/12/27 06:42:07;;;;;;;14.50;7.90;;;5.20;99.90;;;;;;4998477;28;20492;-68
2023/12/27 06:44:36;;;;;;;10.70;6.07;;;5.20;99.90;;;;;;4998566;28;20516;-68
2023/12/27 06:47:04;;;;;;;9.90;6.30;;;5.30;99.90;;;;;;4997853;28;20503;-68
2023/12/27 06:49:31;;;;;;;15.67;7.30;;;5.30;99.90;;;;;;4998239;28;20499;-68
2023/12/27 06:51:58;;;;;;;10.87;6.97;;;5.30;99.90;;;;;;4998142;28;20818;-68
2023/12/27 06:54:25;;;;;;;11.70;7.40;;;5.30;99.90;;;;;;4997948;28;20778;-68
2023/12/27 06:56:52;;;;;;;13.27;6.60;;;5.30;99.90;;;;;;4997845;28;20465;-68
2023/12/27 06:59:20;;;;;;;12.60;7.23;;;5.40;99.90;;;;;;4998186;28;20497;-68
2023/12/27 07:01:48;;;;;;;12.40;7.40;;;5.40;99.90;;;;;;4998054;28;20488;-68
2023/12/27 07:04:16;;;;;;;9.97;6.70;;;5.50;99.90;;;;;;4999446;28;20782;-68
2023/12/27 07:06:43;;;;;;;16.03;8.30;;;5.60;99.90;;;;;;4997906;28;20511;-66
2023/12/27 07:09:10;;;;;;;13.37;7.40;;;5.70;99.90;;;;;;4997450;28;20507;-68
2023/12/27 07:11:38;;;;;;;12.70;6.93;;;5.80;99.90;;;;;;4997753;28;20905;-68
2023/12/27 07:14:05;;;;;;;14.00;7.37;;;5.80;99.90;;;;;;4997955;28;20465;-68
2023/12/27 07:16:33;;;;;;;16.47;8.17;;;5.90;99.90;;;;;;4998709;28;20484;-67
2023/12/27 07:19:03;;;;;;;13.40;7.80;;;6.10;99.90;;;;;;4997203;28;20563;-67
2023/12/27 07:21:31;;;;;;;15.77;7.40;;;6.10;99.90;;;;;;4997469;28;20465;-66
2023/12/27 07:23:58;;;;;;;13.30;7.97;;;6.10;99.90;;;;;;4997006;28;20465;-66
2023/12/27 07:26:25;;;;;;;17.53;7.70;;;6.10;99.90;;;;;;4997212;28;20592;-66
2023/12/27 07:28:52;;;;;;;15.27;7.70;;;6.10;99.90;;;;;;4997234;28;20757;-67
2023/12/27 07:31:20;;;;;;;10.57;7.33;;;6.20;99.90;;;;;;5003833;28;20453;-66
2023/12/27 07:33:47;;;;;;;15.37;8.40;;;6.20;99.90;;;;;;5016968;28;20544;-66
2023/12/27 07:36:17;;;;;;;16.40;6.93;;;6.30;99.90;;;;;;5017143;28;20460;-66
2023/12/27 07:38:44;;;;;;;13.17;7.33;;;6.30;99.90;;;;;;5017336;28;20553;-67
2023/12/27 07:41:11;;;;;;;16.63;7.53;;;6.30;99.90;;;;;;5016736;28;21024;-67
2023/12/27 07:43:41;;;;;;;9.80;7.33;;;6.30;99.90;;;;;;5015975;28;20851;-65
2023/12/27 07:46:09;;;;;;;13.13;8.20;;;6.40;99.90;;;;;;5015026;28;20460;-66
2023/12/27 07:48:36;;;;;;;11.07;6.30;;;6.40;99.90;;;;;;5015974;28;20849;-66
2023/12/27 07:51:03;;;;;;;10.20;7.07;;;6.40;99.90;;;;;;5016137;28;20506;-66
2023/12/27 07:53:33;;;;;;;17.33;6.70;;;6.40;99.90;;;;;;5016252;28;20472;-66
2023/12/27 07:55:59;;;;;;;15.47;6.33;;;6.50;99.90;;;;;;5016297;28;20460;-66
2023/12/27 07:58:26;;;;;;;10.73;5.87;;;6.50;99.90;;;;;;5014648;28;20479;-65
2023/12/27 08:00:54;;;;;;;15.00;5.80;;;6.60;99.90;;;;;;5014204;28;20459;-67
2023/12/27 08:03:21;;;;;;;12.80;6.70;;;6.60;99.90;;;;;;5014625;28;20460;-66
2023/12/27 08:05:48;;;;;;;11.77;5.50;;;6.60;99.90;;;;;;5015180;28;20499;-66
2023/12/27 08:08:15;;;;;;;12.33;6.93;;;6.70;99.90;;;;;;5015268;28;20838;-66
2023/12/27 08:10:44;;;;;;;13.73;7.20;;;6.70;99.90;;;;;;5015284;28;20488;-67
2023/12/27 08:13:12;;;;;;;13.30;7.63;;;6.70;99.90;;;;;;5015532;28;20460;-67
2023/12/27 08:15:40;;;;;;;9.27;7.50;;;6.80;99.90;;;;;;5020197;28;20456;-66
2023/12/27 08:18:07;;;;;;;14.20;8.30;;;6.80;99.90;;;;;;5020302;28;20531;-68
2023/12/27 08:20:35;;;;;;;12.27;7.80;;;6.90;99.90;;;;;;5020564;28;20531;-68
2023/12/27 08:23:03;;;;;;;13.87;6.77;;;6.80;99.90;;;;;;5020216;28;20522;-69
2023/12/27 08:25:30;;;;;;;16.10;9.13;;;6.90;99.90;;;;;;5020237;28;20598;-69
2023/12/27 08:28:00;;;;;;;14.73;8.40;;;6.90;99.90;;;;;;5020404;28;20522;-70
2023/12/27 08:30:28;;;;;;;13.83;8.20;;;6.90;99.90;;;;;;5019888;28;20468;-70
2023/12/27 08:32:56;;;;;;;13.03;7.70;;;6.90;99.90;;;;;;5019912;28;20452;-68
2023/12/27 08:35:23;;;;;;;10.30;5.70;;;6.90;99.90;;;;;;5020208;28;20739;-69
2023/12/27 08:37:50;;;;;;;9.37;6.00;;;6.90;99.90;;;;;;5020688;28;20868;-71
2023/12/27 08:40:19;;;;;;;12.67;7.20;;;6.90;99.90;;;;;;5021805;28;20530;-67
2023/12/27 08:42:46;;;;;;;14.70;8.67;;;6.90;99.90;;;;;;5020933;28;20514;-68
2023/12/27 08:45:15;;;;;;;15.27;8.80;;;6.90;99.90;;;;;;5019604;28;20500;-71
2023/12/27 08:47:44;;;;;;;12.47;7.60;;;7.00;99.90;;;;;;5021555;28;20468;-71
2023/12/27 08:50:11;;;;;;;12.50;9.07;;;7.00;99.90;;;;;;5021371;28;20487;-70
2023/12/27 08:52:39;;;;;;;13.60;7.63;;;7.00;99.90;;;;;;5020438;28;20881;-70
2023/12/27 08:55:10;;;;;;;16.43;8.80;;;7.00;99.90;;;;;;5019348;28;20529;-70
2023/12/27 08:57:37;;;;;;;11.43;7.77;;;7.10;99.90;;;;;;5020742;28;20464;-70
2023/12/27 09:00:10;;;;;;;13.00;7.27;;;7.10;99.90;;;;;;5019936;28;20500;-70
2023/12/27 09:02:39;;;;;;;11.83;6.60;;;7.10;99.90;;;;;;5020819;28;20468;-70
2023/12/27 09:05:07;;;;;;;12.10;6.70;;;7.10;99.90;;;;;;5020330;28;20467;-71
2023/12/27 09:07:35;;;;;;;11.00;5.80;;;7.10;99.90;;;;;;5020305;28;20761;-69
2023/12/27 09:10:04;;;;;;;9.77;5.60;;;7.20;99.90;;;;;;5019817;28;20583;-69
2023/12/27 09:12:31;;;;;;;11.10;5.53;;;7.20;99.90;;;;;;5019581;28;20439;-68
2023/12/27 09:14:59;;;;;;;10.07;5.93;;;7.20;99.90;;;;;;5019419;28;20514;-68
2023/12/27 09:17:26;;;;;;;10.60;5.87;;;7.20;99.90;;;;;;5019457;28;20467;-62
2023/12/27 09:19:55;;;;;;;11.20;6.53;;;7.30;99.90;;;;;;5018959;28;20542;-67
2023/12/27 09:22:22;;;;;;;11.90;5.43;;;7.40;99.90;;;;;;5019531;28;20893;-68
2023/12/27 09:24:49;;;;;;;11.63;6.67;;;7.40;99.90;;;;;;5018586;28;20488;-67
2023/12/27 09:27:19;;;;;;;9.60;5.70;;;7.60;99.90;;;;;;5010114;28;20477;-66
2023/12/27 09:29:47;;;;;;;6.57;5.30;;;7.60;99.90;;;;;;4999140;28;20514;-66
2023/12/27 09:32:14;;;;;;;6.60;5.57;;;7.70;99.90;;;;;;4999016;28;20902;-66
2023/12/27 09:34:41;;;;;;;6.57;5.20;;;7.80;99.90;;;;;;4999500;28;20512;-66
2023/12/27 09:37:10;;;;;;;6.90;5.33;;;7.80;99.90;;;;;;4998941;28;20814;-67
2023/12/27 09:39:38;;;;;;;5.90;4.57;;;7.90;99.90;;;;;;4998975;28;20511;-67
2023/12/27 09:42:05;;;;;;;9.23;4.43;;;7.90;99.90;;;;;;4999446;28;20469;-67
2023/12/27 09:44:35;;;;;;;6.20;4.77;;;7.90;99.90;;;;;;4999443;28;20559;-68
2023/12/27 09:47:04;;;;;;;5.60;4.33;;;8.00;99.90;;;;;;4998734;28;20465;-68
2023/12/27 09:49:34;;;;;;;6.53;4.53;;;8.10;99.90;;;;;;4998894;28;20945;-68
2023/12/27 09:52:02;;;;;;;6.93;4.33;;;8.10;99.90;;;;;;4999048;28;20517;-68
2023/12/27 09:54:31;;;;;;;6.10;3.83;;;8.10;99.90;;;;;;4999249;28;20472;-66
2023/12/27 09:56:59;;;;;;;5.20;3.90;;;8.00;99.90;;;;;;4999380;28;20519;-69
2023/12/27 09:59:29;;;;;;;6.10;4.30;;;8.00;99.90;;;;;;5003040;28;20492;-67
2023/12/27 10:02:01;;;;;;;8.00;4.90;;;8.00;99.90;;;;;;5004488;28;20551;-69
2023/12/27 10:04:37;;;;;;;4.70;3.93;;;8.00;99.90;;;;;;5004331;28;20465;-68
2023/12/27 10:07:05;;;;;;;5.90;4.30;;;8.00;99.90;;;;;;5005923;28;20464;-68
2023/12/27 10:09:34;;;;;;;4.73;3.93;;;8.00;99.90;;;;;;5002114;28;20527;-68
2023/12/27 10:12:02;;;;;;;6.57;4.47;;;7.90;99.90;;;;;;5002855;28;20527;-69
2023/12/27 10:14:33;;;;;;;6.70;4.40;;;7.90;99.90;;;;;;5003224;28;20443;-67
2023/12/27 10:17:02;;;;;;;5.20;4.57;;;8.00;99.90;;;;;;5003542;28;20468;-68
2023/12/27 10:19:40;;;;;;;7.60;4.70;;;8.00;99.90;;;;;;5002253;28;20504;-67
2023/12/27 10:22:08;;;;;;;5.23;4.30;;;8.00;99.90;;;;;;5001002;28;20467;-68
2023/12/27 10:24:37;;;;;;;6.17;4.17;;;8.00;99.90;;;;;;5002393;28;20465;-68
2023/12/27 10:27:05;;;;;;;6.47;4.90;;;8.00;99.90;;;;;;5003795;28;20486;-69
2023/12/27 10:29:33;;;;;;;6.07;4.33;;;8.00;99.90;;;;;;5002835;28;20488;-68
2023/12/27 10:32:01;;;;;;;5.40;4.30;;;8.00;99.90;;;;;;5003376;28;20469;-69
2023/12/27 10:34:29;;;;;;;6.80;4.33;;;8.00;99.90;;;;;;5001414;28;20480;-67
2023/12/27 10:36:57;;;;;;;7.23;3.87;;;8.00;99.90;;;;;;5003322;28;20909;-70
2023/12/27 10:39:25;;;;;;;5.63;4.30;;;8.00;99.90;;;;;;5002922;28;20497;-68
2023/12/27 10:41:55;;;;;;;4.77;3.33;;;8.10;99.90;;;;;;5003155;28;20461;-68
2023/12/27 10:44:23;;;;;;;5.30;3.77;;;8.00;99.90;;;;;;5002731;28;20485;-70
2023/12/27 10:46:51;;;;;;;6.33;4.37;;;8.00;99.90;;;;;;5004337;28;20468;-69
2023/12/27 10:49:20;;;;;;;6.73;4.23;;;8.10;99.90;;;;;;5002366;28;20467;-69
2023/12/27 10:51:50;;;;;;;4.73;3.43;;;8.10;99.90;;;;;;5004009;28;20474;-70
2023/12/27 10:54:21;;;;;;;5.07;3.90;;;8.10;99.90;;;;;;5003381;28;20593;-69
2023/12/27 10:56:52;;;;;;;7.27;3.97;;;8.10;99.90;;;;;;5003832;28;20472;-69
2023/12/27 10:59:21;;;;;;;5.20;3.87;;;8.20;99.90;;;;;;5007048;28;20969;-69
2023/12/27 11:01:51;;;;;;;6.70;4.13;;;8.20;99.90;;;;;;5007037;28;20460;-69
2023/12/27 11:04:21;;;;;;;9.20;3.50;;;8.20;99.90;;;;;;5008781;28;20540;-68
2023/12/27 11:06:50;;;;;;;5.10;3.33;;;8.20;99.90;;;;;;5007280;28;20464;-70
2023/12/27 11:09:20;;;;;;;5.43;3.53;;;8.20;99.90;;;;;;5004147;28;20467;-69
2023/12/27 11:11:48;;;;;;;4.97;3.60;;;8.20;99.90;;;;;;5007581;28;20467;-70
2023/12/27 11:14:19;;;;;;;3.60;2.53;;;8.30;99.90;;;;;;5006040;28;20465;-69
2023/12/27 11:16:50;;;;;;;5.60;3.60;;;8.30;99.90;;;;;;5007566;28;20465;-69
2023/12/27 11:19:17;;;;;;;5.73;3.87;;;8.30;99.90;;;;;;5007283;28;20505;-69
2023/12/27 11:21:47;;;;;;;6.37;4.03;;;8.40;99.90;;;;;;5007980;28;20465;-68
2023/12/27 11:24:15;;;;;;;4.50;3.50;;;8.30;99.90;;;;;;5003269;28;20500;-67
2023/12/27 11:26:43;;;;;;;5.67;4.00;;;8.30;99.90;;;;;;5005505;28;20464;-69
2023/12/27 11:29:12;;;;;;;4.03;3.33;;;8.30;99.90;;;;;;5002242;28;20496;-70
2023/12/27 11:31:40;;;;;;;5.13;3.63;;;8.30;99.90;;;;;;5000815;28;20461;-68
2023/12/27 11:34:10;;;;;;;4.37;3.33;;;8.30;99.90;;;;;;5001322;28;20511;-69
2023/12/27 11:36:37;;;;;;;4.63;2.93;;;8.40;99.90;;;;;;5000916;28;20886;-69
2023/12/27 11:39:17;;;;;;;4.50;3.40;;;8.40;99.90;;;;;;5006582;28;20549;-68
2023/12/27 11:41:44;;;;;;;4.20;3.40;;;8.50;99.90;;;;;;5017259;28;20475;-67
2023/12/27 11:44:14;;;;;;;4.53;3.27;;;8.60;99.90;;;;;;5017746;28;20498;-70
2023/12/27 11:46:43;;;;;;;5.33;3.47;;;8.60;99.90;;;;;;5017491;28;20519;-68
2023/12/27 11:49:20;;;;;;;14.93;10.87;;;8.60;99.90;;;;;;5018932;28;20455;-68
2023/12/27 11:51:48;;;;;;;15.67;11.60;;;8.70;99.90;;;;;;5021443;28;20563;-68
2023/12/27 11:54:23;;;;;;;11.83;8.50;;;8.70;99.90;;;;;;5021627;28;20786;-67
2023/12/27 11:56:52;;;;;;;8.73;6.67;;;8.70;99.90;;;;;;5020504;28;20469;-67
2023/12/27 11:59:20;;;;;;;7.70;5.10;;;8.70;99.90;;;;;;5019928;28;20790;-68
2023/12/27 12:01:49;;;;;;;12.20;8.40;;;8.70;99.90;;;;;;5019363;28;20546;-66
2023/12/27 12:04:45;;;;;;;6.80;5.57;;;8.70;99.90;;;;;;5020420;28;20460;-68
2023/12/27 12:07:51;;;;;;;6.00;4.00;;;8.70;99.90;;;;;;5018932;28;20809;-67
2023/12/27 12:10:23;;;;;;;7.57;4.77;;;8.80;99.90;;;;;;5018782;28;20959;-68
2023/12/27 12:12:51;;;;;;;7.87;5.13;;;8.80;99.90;;;;;;5019018;28;20462;-68
2023/12/27 12:15:22;;;;;;;11.67;6.60;;;8.90;99.90;;;;;;5019784;28;20455;-68
2023/12/27 12:17:50;;;;;;;7.57;4.90;;;8.90;99.90;;;;;;5020222;28;20754;-67
2023/12/27 12:20:18;;;;;;;5.03;2.83;;;8.90;99.90;;;;;;5018734;28;20527;-69
2023/12/27 12:22:46;;;;;;;6.13;4.13;;;8.90;99.90;;;;;;5020612;28;20467;-67
2023/12/27 12:25:13;;;;;;;7.57;5.20;;;8.90;99.90;;;;;;5024931;28;20466;-67
2023/12/27 12:27:44;;;;;;;4.83;3.40;;;8.90;99.90;;;;;;5025184;28;20497;-68
2023/12/27 12:30:12;;;;;;;4.13;3.17;;;9.00;99.90;;;;;;5020783;28;20741;-66
2023/12/27 12:32:40;;;;;;;6.50;4.23;;;9.00;99.90;;;;;;5018101;28;20460;-66
2023/12/27 12:35:09;;;;;;;5.60;2.43;;;9.00;99.90;;;;;;5023069;28;20466;-67
2023/12/27 12:37:39;;;;;;;6.63;3.03;;;9.00;99.90;;;;;;5024459;28;20530;-67
2023/12/27 12:40:08;;;;;;;4.07;2.90;;;9.00;99.90;;;;;;5019930;28;20561;-67
2023/12/27 12:42:36;;;;;;;4.47;3.60;;;9.10;99.90;;;;;;5003186;28;20547;-67
2023/12/27 12:45:05;;;;;;;5.40;4.17;;;9.10;99.90;;;;;;5012974;28;20521;-66
2023/12/27 12:47:33;;;;;;;7.57;5.10;;;9.20;99.90;;;;;;5019976;28;20471;-67
2023/12/27 12:50:01;;;;;;;5.40;3.57;;;9.10;99.90;;;;;;5021883;28;20514;-67
2023/12/27 12:52:28;;;;;;;4.33;3.07;;;9.10;99.90;;;;;;5019824;28;20472;-67